sensor_id;sensor_type;location;lat;lon;timestamp;temperature;humidity
20858;DHT22;10589;53.636;10.012;2022-12-29T04:46:00;8.90;99.90
20858;DHT22;10589;53.636;10.012;2022-12-29T04:48:26;8.90;99.90
20858;DHT22;10589;53.636;10.012;2022-12-29T04:50:51;9.00;99.90
20858;DHT22;10589;53.636;10.012;2022-12-29T04:53:17;9.00;99.90
20858;DHT22;10589;53.636;10.012;2022-12-29T04:55:43;9.00;99.90
20858;DHT22;10589;53.636;10.012;2022-12-29T04:58:08;9.00;99.90
20858;DHT22;10589;53.636;10.012;2022-12-29T05:00:34;9.00;99.90
20858;DHT22;10589;53.636;10.012;2022-12-29T05:03:00;9.00;99.90
20858;DHT22;10589;53.636;10.012;2022-12-29T05:05:26;9.00;99.90
20858;DHT22;10589;53.636;10.012;2022-12-29T05:07:51;9.00;99.90
20858;DHT22;10589;53.636;10.012;2022-12-29T05:10:17;9.00;99.90
20858;DHT22;10589;53.636;10.012;2022-12-29T05:12:43;9.00;99.90
20858;DHT22;10589;53.636;10.012;2022-12-29T05:15:10;9.00;99.90
20858;DHT22;10589;53.636;10.012;2022-12-29T05:17:36;9.00;99.90
20858;DHT22;10589;53.636;10.012;2022-12-29T05:20:01;9.00;99.90
20858;DHT22;10589;53.636;10.012;2022-12-29T05:22:27;9.20;99.90
20858;DHT22;10589;53.636;10.012;2022-12-29T05:24:52;9.10;99.90
20858;DHT22;10589;53.636;10.012;2022-12-29T05:27:18;9.20;99.90
20858;DHT22;10589;53.636;10.012;2022-12-29T05:29:43;9.30;99.90
20858;DHT22;10589;53.636;10.012;2022-12-29T05:32:09;9.40;99.90
20858;DHT22;10589;53.636;10.012;2022-12-29T05:34:35;9.50;99.90
20858;DHT22;10589;53.636;10.012;2022-12-29T05:37:00;9.50;99.90
20858;DHT22;10589;53.636;10.012;2022-12-29T05:39:27;9.60;99.90
20858;DHT22;10589;53.636;10.012;2022-12-29T05:41:53;9.60;99.90
20858;DHT22;10589;53.636;10.012;2022-12-29T05:44:18;9.70;99.90
20858;DHT22;10589;53.636;10.012;2022-12-29T05:46:44;9.60;99.90
20858;DHT22;10589;53.636;10.012;2022-12-29T05:49:10;9.60;99.90
20858;DHT22;10589;53.636;10.012;2022-12-29T05:51:35;9.60;99.90
20858;DHT22;10589;53.636;10.012;2022-12-29T05:54:01;9.70;99.90
20858;DHT22;10589;53.636;10.012;2022-12-29T05:56:26;9.70;99.90
20858;DHT22;10589;53.636;10.012;2022-12-29T05:58:52;9.60;99.90
20858;DHT22;10589;53.636;10.012;2022-12-29T06:01:17;9.70;99.90
20858;DHT22;10589;53.636;10.012;2022-12-29T06:03:43;9.70;99.90
20858;DHT22;10589;53.636;10.012;2022-12-29T06:06:09;9.70;99.90
20858;DHT22;10589;53.636;10.012;2022-12-29T06:08:35;9.70;99.90
20858;DHT22;10589;53.636;10.012;2022-12-29T06:11:00;9.70;99.90
20858;DHT22;10589;53.636;10.012;2022-12-29T06:13:26;9.70;99.90
20858;DHT22;10589;53.636;10.012;2022-12-29T06:15:52;9.70;99.90
20858;DHT22;10589;53.636;10.012;2022-12-29T06:18:18;9.70;99.90
20858;DHT22;10589;53.636;10.012;2022-12-29T06:20:43;9.70;99.90
20858;DHT22;10589;53.636;10.012;2022-12-29T06:23:09;9.70;99.90
20858;DHT22;10589;53.636;10.012;2022-12-29T06:25:35;9.70;99.90
20858;DHT22;10589;53.636;10.012;2022-12-29T06:28:01;9.70;99.90
20858;DHT22;10589;53.636;10.012;2022-12-29T06:30:27;9.70;99.90
20858;DHT22;10589;53.636;10.012;2022-12-29T06:32:53;9.70;99.90
20858;DHT22;10589;53.636;10.012;2022-12-29T06:35:19;9.70;99.90
20858;DHT22;10589;53.636;10.012;2022-12-29T06:37:45;9.70;99.90
20858;DHT22;10589;53.636;10.012;2022-12-29T06:40:11;9.70;99.90
20858;DHT22;10589;53.636;10.012;2022-12-29T06:42:37;9.60;99.90
20858;DHT22;10589;53.636;10.012;2022-12-29T06:45:03;9.60;99.90
20858;DHT22;10589;53.636;10.012;2022-12-29T06:47:28;9.60;99.90
20858;DHT22;10589;53.636;10.012;2022-12-29T06:49:54;9.60;99.90
20858;DHT22;10589;53.636;10.012;2022-12-29T06:52:20;9.60;99.90
20858;DHT22;10589;53.636;10.012;2022-12-29T06:54:46;9.50;99.90
20858;DHT22;10589;53.636;10.012;2022-12-29T06:57:11;9.60;99.90
20858;DHT22;10589;53.636;10.012;2022-12-29T06:59:37;9.50;99.90
20858;DHT22;10589;53.636;10.012;2022-12-29T07:02:02;9.50;99.90
20858;DHT22;10589;53.636;10.012;2022-12-29T07:04:28;9.50;99.90
20858;DHT22;10589;53.636;10.012;2022-12-29T07:06:55;9.50;99.90
20858;DHT22;10589;53.636;10.012;2022-12-29T07:09:20;9.50;99.90
20858;DHT22;10589;53.636;10.012;2022-12-29T07:11:46;9.40;99.90
20858;DHT22;10589;53.636;10.012;2022-12-29T07:14:11;9.40;99.90
20858;DHT22;10589;53.636;10.012;2022-12-29T07:16:38;9.30;99.90
20858;DHT22;10589;53.636;10.012;2022-12-29T07:19:03;9.30;99.90
20858;DHT22;10589;53.636;10.012;2022-12-29T07:21:29;9.40;99.90
20858;DHT22;10589;53.636;10.012;2022-12-29T07:23:55;9.40;99.90
20858;DHT22;10589;53.636;10.012;2022-12-29T07:26:21;9.40;99.90
20858;DHT22;10589;53.636;10.012;2022-12-29T07:28:46;9.30;99.90
20858;DHT22;10589;53.636;10.012;2022-12-29T07:31:17;9.30;99.90
20858;DHT22;10589;53.636;10.012;2022-12-29T07:33:44;9.30;99.90
20858;DHT22;10589;53.636;10.012;2022-12-29T07:36:10;9.30;99.90
20858;DHT22;10589;53.636;10.012;2022-12-29T07:38:36;9.30;99.90
20858;DHT22;10589;53.636;10.012;2022-12-29T07:41:02;9.30;99.90
20858;DHT22;10589;53.636;10.012;2022-12-29T07:43:27;9.40;99.90
20858;DHT22;10589;53.636;10.012;2022-12-29T07:45:53;9.40;99.90
20858;DHT22;10589;53.636;10.012;2022-12-29T07:48:19;9.40;99.90
20858;DHT22;10589;53.636;10.012;2022-12-29T07:50:44;9.30;99.90
20858;DHT22;10589;53.636;10.012;2022-12-29T07:53:10;9.30;99.90
20858;DHT22;10589;53.636;10.012;2022-12-29T07:55:36;9.30;99.90
20858;DHT22;10589;53.636;10.012;2022-12-29T07:58:01;9.40;99.90
20858;DHT22;10589;53.636;10.012;2022-12-29T08:00:27;9.40;99.90
20858;DHT22;10589;53.636;10.012;2022-12-29T08:02:53;9.30;99.90
20858;DHT22;10589;53.636;10.012;2022-12-29T08:05:19;9.30;99.90
20858;DHT22;10589;53.636;10.012;2022-12-29T08:07:45;9.30;99.90
20858;DHT22;10589;53.636;10.012;2022-12-29T08:10:11;9.30;99.90
20858;DHT22;10589;53.636;10.012;2022-12-29T08:12:41;9.30;99.90
20858;DHT22;10589;53.636;10.012;2022-12-29T08:15:08;9.40;99.90
20858;DHT22;10589;53.636;10.012;2022-12-29T08:17:34;9.40;99.90
20858;DHT22;10589;53.636;10.012;2022-12-29T08:20:00;9.40;99.90
20858;DHT22;10589;53.636;10.012;2022-12-29T08:22:26;9.40;99.90
20858;DHT22;10589;53.636;10.012;2022-12-29T08:24:51;9.40;99.90
20858;DHT22;10589;53.636;10.012;2022-12-29T08:27:17;9.30;99.90
20858;DHT22;10589;53.636;10.012;2022-12-29T08:29:43;9.30;99.90
20858;DHT22;10589;53.636;10.012;2022-12-29T08:32:09;9.30;99.90
20858;DHT22;10589;53.636;10.012;2022-12-29T08:34:34;9.30;99.90
20858;DHT22;10589;53.636;10.012;2022-12-29T08:37:00;9.40;99.90
20858;DHT22;10589;53.636;10.012;2022-12-29T08:39:26;9.50;99.90
20858;DHT22;10589;53.636;10.012;2022-12-29T08:41:51;9.50;99.90
20858;DHT22;10589;53.636;10.012;2022-12-29T08:44:17;9.60;99.90
20858;DHT22;10589;53.636;10.012;2022-12-29T08:46:42;9.70;99.90
20858;DHT22;10589;53.636;10.012;2022-12-29T08:49:08;9.70;99.90
20858;DHT22;10589;53.636;10.012;2022-12-29T08:51:35;9.80;99.90
20858;DHT22;10589;53.636;10.012;2022-12-29T08:54:00;9.80;99.90
20858;DHT22;10589;53.636;10.012;2022-12-29T08:56:26;9.80;99.90
20858;DHT22;10589;53.636;10.012;2022-12-29T08:58:53;9.90;99.90
20858;DHT22;10589;53.636;10.012;2022-12-29T09:01:19;10.00;99.90
20858;DHT22;10589;53.636;10.012;2022-12-29T09:03:45;10.00;99.90
20858;DHT22;10589;53.636;10.012;2022-12-29T09:06:11;10.00;99.90
20858;DHT22;10589;53.636;10.012;2022-12-29T09:08:37;10.10;99.90
20858;DHT22;10589;53.636;10.012;2022-12-29T09:11:07;10.20;99.90
20858;DHT22;10589;53.636;10.012;2022-12-29T09:13:34;10.20;99.90
20858;DHT22;10589;53.636;10.012;2022-12-29T09:16:00;10.20;99.90
20858;DHT22;10589;53.636;10.012;2022-12-29T09:18:25;10.30;99.90
20858;DHT22;10589;53.636;10.012;2022-12-29T09:20:57;10.30;99.90
20858;DHT22;10589;53.636;10.012;2022-12-29T09:23:23;10.30;99.90
20858;DHT22;10589;53.636;10.012;2022-12-29T09:25:49;10.30;99.90
20858;DHT22;10589;53.636;10.012;2022-12-29T09:28:14;10.30;99.90
20858;DHT22;10589;53.636;10.012;2022-12-29T09:30:41;10.30;99.90
20858;DHT22;10589;53.636;10.012;2022-12-29T09:33:06;10.30;99.90
20858;DHT22;10589;53.636;10.012;2022-12-29T09:35:32;10.30;99.90
20858;DHT22;10589;53.636;10.012;2022-12-29T09:37:57;10.40;99.90
20858;DHT22;10589;53.636;10.012;2022-12-29T09:40:32;10.30;99.90
20858;DHT22;10589;53.636;10.012;2022-12-29T09:43:23;10.40;99.90
20858;DHT22;10589;53.636;10.012;2022-12-29T09:48:49;10.50;99.90
20858;DHT22;10589;53.636;10.012;2022-12-29T09:51:20;10.40;99.90
20858;DHT22;10589;53.636;10.012;2022-12-29T09:53:53;10.50;99.90
20858;DHT22;10589;53.636;10.012;2022-12-29T09:56:22;10.40;99.90
20858;DHT22;10589;53.636;10.012;2022-12-29T09:59:02;10.50;99.90
20858;DHT22;10589;53.636;10.012;2022-12-29T10:01:41;10.50;99.90
20858;DHT22;10589;53.636;10.012;2022-12-29T10:04:09;10.50;99.90
20858;DHT22;10589;53.636;10.012;2022-12-29T10:06:46;10.60;99.90
20858;DHT22;10589;53.636;10.012;2022-12-29T10:12:26;10.60;99.90
20858;DHT22;10589;53.636;10.012;2022-12-29T10:20:38;10.60;99.90
20858;DHT22;10589;53.636;10.012;2022-12-29T10:25:39;10.50;99.90
20858;DHT22;10589;53.636;10.012;2022-12-29T10:28:17;10.50;99.90
20858;DHT22;10589;53.636;10.012;2022-12-29T10:30:47;10.50;99.90
20858;DHT22;10589;53.636;10.012;2022-12-29T10:33:18;10.50;99.90
20858;DHT22;10589;53.636;10.012;2022-12-29T10:35:44;10.40;99.90
20858;DHT22;10589;53.636;10.012;2022-12-29T10:38:35;10.30;99.90
20858;DHT22;10589;53.636;10.012;2022-12-29T10:41:13;10.40;99.90
20858;DHT22;10589;53.636;10.012;2022-12-29T10:46:23;10.40;99.90
20858;DHT22;10589;53.636;10.012;2022-12-29T10:48:50;10.50;99.90
20858;DHT22;10589;53.636;10.012;2022-12-29T10:51:28;10.50;99.90
20858;DHT22;10589;53.636;10.012;2022-12-29T10:54:03;10.50;99.90
20858;DHT22;10589;53.636;10.012;2022-12-29T10:56:35;10.60;99.90
20858;DHT22;10589;53.636;10.012;2022-12-29T10:59:19;10.70;99.90
20858;DHT22;10589;53.636;10.012;2022-12-29T11:07:21;10.60;99.90
20858;DHT22;10589;53.636;10.012;2022-12-29T11:09:47;10.60;99.90
20858;DHT22;10589;53.636;10.012;2022-12-29T11:14:46;10.50;99.90
20858;DHT22;10589;53.636;10.012;2022-12-29T11:17:16;10.50;99.90
20858;DHT22;10589;53.636;10.012;2022-12-29T11:19:42;10.50;99.90
20858;DHT22;10589;53.636;10.012;2022-12-29T11:22:14;10.60;99.90
20858;DHT22;10589;53.636;10.012;2022-12-29T11:24:45;10.70;99.90
20858;DHT22;10589;53.636;10.012;2022-12-29T11:27:22;10.80;99.90
20858;DHT22;10589;53.636;10.012;2022-12-29T11:29:50;10.90;99.90
20858;DHT22;10589;53.636;10.012;2022-12-29T11:32:27;10.90;99.90
20858;DHT22;10589;53.636;10.012;2022-12-29T11:34:55;10.90;99.90
20858;DHT22;10589;53.636;10.012;2022-12-29T11:37:28;10.90;99.90
20858;DHT22;10589;53.636;10.012;2022-12-29T11:40:29;10.90;99.90
20858;DHT22;10589;53.636;10.012;2022-12-29T11:47:52;11.00;99.90
20858;DHT22;10589;53.636;10.012;2022-12-29T11:50:21;11.00;99.90
20858;DHT22;10589;53.636;10.012;2022-12-29T11:52:49;10.90;99.90
20858;DHT22;10589;53.636;10.012;2022-12-29T11:55:21;10.90;99.90
20858;DHT22;10589;53.636;10.012;2022-12-29T11:57:50;11.00;99.90
20858;DHT22;10589;53.636;10.012;2022-12-29T12:00:18;11.00;99.90
20858;DHT22;10589;53.636;10.012;2022-12-29T12:05:35;10.90;99.90
20858;DHT22;10589;53.636;10.012;2022-12-29T12:08:17;10.90;99.90
20858;DHT22;10589;53.636;10.012;2022-12-29T12:10:52;10.90;99.90
20858;DHT22;10589;53.636;10.012;2022-12-29T12:16:02;10.80;99.90
20858;DHT22;10589;53.636;10.012;2022-12-29T12:18:40;10.70;99.90
20858;DHT22;10589;53.636;10.012;2022-12-29T12:21:23;10.80;99.90
20858;DHT22;10589;53.636;10.012;2022-12-29T12:26:20;10.70;99.90
20858;DHT22;10589;53.636;10.012;2022-12-29T12:29:13;10.70;99.90
20858;DHT22;10589;53.636;10.012;2022-12-29T12:32:04;10.70;99.90
20858;DHT22;10589;53.636;10.012;2022-12-29T12:34:43;10.80;99.90
20858;DHT22;10589;53.636;10.012;2022-12-29T12:37:40;10.70;99.90
20858;DHT22;10589;53.636;10.012;2022-12-29T12:43:18;10.60;99.90
20858;DHT22;10589;53.636;10.012;2022-12-29T12:46:17;10.50;99.90
20858;DHT22;10589;53.636;10.012;2022-12-29T13:05:51;10.60;99.90
20858;DHT22;10589;53.636;10.012;2022-12-29T13:17:03;10.60;99.90
20858;DHT22;10589;53.636;10.012;2022-12-29T13:19:41;10.60;99.90
20858;DHT22;10589;53.636;10.012;2022-12-29T13:22:28;10.60;99.90
20858;DHT22;10589;53.636;10.012;2022-12-29T13:27:56;10.40;99.90
20858;DHT22;10589;53.636;10.012;2022-12-29T13:36:19;9.90;99.90
20858;DHT22;10589;53.636;10.012;2022-12-29T13:38:53;9.70;99.90
20858;DHT22;10589;53.636;10.012;2022-12-29T13:41:32;9.60;99.90
20858;DHT22;10589;53.636;10.012;2022-12-29T13:44:01;9.40;99.90
20858;DHT22;10589;53.636;10.012;2022-12-29T13:46:40;9.30;99.90
20858;DHT22;10589;53.636;10.012;2022-12-29T13:49:18;9.20;99.90
20858;DHT22;10589;53.636;10.012;2022-12-29T13:54:24;9.10;99.90
20858;DHT22;10589;53.636;10.012;2022-12-29T13:59:49;9.10;99.90
20858;DHT22;10589;53.636;10.012;2022-12-29T14:07:42;8.80;99.90
20858;DHT22;10589;53.636;10.012;2022-12-29T14:12:51;8.10;99.90
20858;DHT22;10589;53.636;10.012;2022-12-29T14:15:25;7.80;99.90
20858;DHT22;10589;53.636;10.012;2022-12-29T14:18:10;7.70;99.90
20858;DHT22;10589;53.636;10.012;2022-12-29T14:20:39;7.60;99.90
20858;DHT22;10589;53.636;10.012;2022-12-29T14:26:11;7.60;99.90
20858;DHT22;10589;53.636;10.012;2022-12-29T14:28:42;7.50;99.90
20858;DHT22;10589;53.636;10.012;2022-12-29T14:33:41;7.60;99.90
20858;DHT22;10589;53.636;10.012;2022-12-29T14:36:34;7.60;99.90
20858;DHT22;10589;53.636;10.012;2022-12-29T14:39:01;7.60;99.90
20858;DHT22;10589;53.636;10.012;2022-12-29T14:41:38;7.60;99.90
20858;DHT22;10589;53.636;10.012;2022-12-29T14:47:08;7.60;99.90
20858;DHT22;10589;53.636;10.012;2022-12-29T14:49:42;7.60;99.90
20858;DHT22;10589;53.636;10.012;2022-12-29T14:52:19;7.60;99.90
20858;DHT22;10589;53.636;10.012;2022-12-29T14:57:35;7.60;99.90
20858;DHT22;10589;53.636;10.012;2022-12-29T15:00:34;7.50;99.90
20858;DHT22;10589;53.636;10.012;2022-12-29T15:08:33;7.40;99.90
20858;DHT22;10589;53.636;10.012;2022-12-29T15:11:14;7.30;99.90
20858;DHT22;10589;53.636;10.012;2022-12-29T15:13:42;7.40;99.90
20858;DHT22;10589;53.636;10.012;2022-12-29T15:18:47;7.40;99.90
20858;DHT22;10589;53.636;10.012;2022-12-29T15:21:14;7.40;99.90
20858;DHT22;10589;53.636;10.012;2022-12-29T15:23:43;7.40;99.90
20858;DHT22;10589;53.636;10.012;2022-12-29T15:26:10;7.60;99.90
20858;DHT22;10589;53.636;10.012;2022-12-29T15:28:44;7.60;99.90
20858;DHT22;10589;53.636;10.012;2022-12-29T15:31:24;7.60;99.90
20858;DHT22;10589;53.636;10.012;2022-12-29T15:33:53;7.60;99.90
20858;DHT22;10589;53.636;10.012;2022-12-29T15:36:27;7.70;99.90
20858;DHT22;10589;53.636;10.012;2022-12-29T15:38:53;7.80;99.90
20858;DHT22;10589;53.636;10.012;2022-12-29T15:41:43;7.80;99.90
20858;DHT22;10589;53.636;10.012;2022-12-29T15:44:41;7.80;99.90
20858;DHT22;10589;53.636;10.012;2022-12-29T15:47:22;7.70;99.90
20858;DHT22;10589;53.636;10.012;2022-12-29T15:49:50;7.70;99.90
20858;DHT22;10589;53.636;10.012;2022-12-29T15:52:20;7.60;99.90
20858;DHT22;10589;53.636;10.012;2022-12-29T15:54:48;7.70;99.90
20858;DHT22;10589;53.636;10.012;2022-12-29T15:57:41;7.70;99.90
20858;DHT22;10589;53.636;10.012;2022-12-29T16:00:34;7.70;99.90
20858;DHT22;10589;53.636;10.012;2022-12-29T16:03:01;7.80;99.90
20858;DHT22;10589;53.636;10.012;2022-12-29T16:05:38;7.80;99.90
20858;DHT22;10589;53.636;10.012;2022-12-29T16:08:33;7.70;99.90
20858;DHT22;10589;53.636;10.012;2022-12-29T16:11:04;7.60;99.90
20858;DHT22;10589;53.636;10.012;2022-12-29T16:13:34;7.50;99.90
20858;DHT22;10589;53.636;10.012;2022-12-29T16:16:12;7.40;99.90
20858;DHT22;10589;53.636;10.012;2022-12-29T16:18:39;7.30;99.90
20858;DHT22;10589;53.636;10.012;2022-12-29T16:21:11;7.30;99.90
20858;DHT22;10589;53.636;10.012;2022-12-29T16:23:40;7.30;99.90
20858;DHT22;10589;53.636;10.012;2022-12-29T16:26:16;7.30;99.90
20858;DHT22;10589;53.636;10.012;2022-12-29T16:28:43;7.20;99.90
20858;DHT22;10589;53.636;10.012;2022-12-29T16:31:33;7.20;99.90
20858;DHT22;10589;53.636;10.012;2022-12-29T16:35:12;7.20;99.90
20858;DHT22;10589;53.636;10.012;2022-12-29T16:37:29;7.10;99.90
20858;DHT22;10589;53.636;10.012;2022-12-29T16:39:55;7.10;99.90
20858;DHT22;10589;53.636;10.012;2022-12-29T16:50:30;7.00;99.90
20858;DHT22;10589;53.636;10.012;2022-12-29T16:52:55;6.90;99.90
20858;DHT22;10589;53.636;10.012;2022-12-29T16:55:21;6.90;99.90
20858;DHT22;10589;53.636;10.012;2022-12-29T16:57:48;6.80;99.90
20858;DHT22;10589;53.636;10.012;2022-12-29T17:00:23;6.90;99.90
20858;DHT22;10589;53.636;10.012;2022-12-29T17:02:50;6.80;99.90
20858;DHT22;10589;53.636;10.012;2022-12-29T17:05:18;6.90;99.90
20858;DHT22;10589;53.636;10.012;2022-12-29T17:07:44;6.80;99.90
20858;DHT22;10589;53.636;10.012;2022-12-29T17:10:10;6.90;99.90
20858;DHT22;10589;53.636;10.012;2022-12-29T17:12:38;6.90;99.90
20858;DHT22;10589;53.636;10.012;2022-12-29T17:15:06;6.90;99.90
20858;DHT22;10589;53.636;10.012;2022-12-29T17:17:43;6.90;99.90
20858;DHT22;10589;53.636;10.012;2022-12-29T17:22:40;7.00;99.90
20858;DHT22;10589;53.636;10.012;2022-12-29T17:25:07;6.90;99.90
20858;DHT22;10589;53.636;10.012;2022-12-29T17:27:49;6.90;99.90
20858;DHT22;10589;53.636;10.012;2022-12-29T17:30:21;6.90;99.90
20858;DHT22;10589;53.636;10.012;2022-12-29T17:33:00;7.10;99.90
20858;DHT22;10589;53.636;10.012;2022-12-29T17:35:27;7.20;99.90
20858;DHT22;10589;53.636;10.012;2022-12-29T17:37:54;7.20;99.90
20858;DHT22;10589;53.636;10.012;2022-12-29T17:40:23;7.30;99.90
20858;DHT22;10589;53.636;10.012;2022-12-29T17:42:52;7.40;99.90
20858;DHT22;10589;53.636;10.012;2022-12-29T17:45:30;7.40;99.90
20858;DHT22;10589;53.636;10.012;2022-12-29T17:47:57;7.40;99.90
20858;DHT22;10589;53.636;10.012;2022-12-29T17:50:28;7.50;99.90
20858;DHT22;10589;53.636;10.012;2022-12-29T17:52:56;7.50;99.90
20858;DHT22;10589;53.636;10.012;2022-12-29T17:55:23;7.50;99.90
20858;DHT22;10589;53.636;10.012;2022-12-29T17:57:50;7.50;99.90
20858;DHT22;10589;53.636;10.012;2022-12-29T18:00:28;7.50;99.90
20858;DHT22;10589;53.636;10.012;2022-12-29T18:02:58;7.50;99.90
20858;DHT22;10589;53.636;10.012;2022-12-29T18:05:26;7.60;99.90
20858;DHT22;10589;53.636;10.012;2022-12-29T18:07:54;7.60;99.90
20858;DHT22;10589;53.636;10.012;2022-12-29T18:10:21;7.60;99.90
20858;DHT22;10589;53.636;10.012;2022-12-29T18:12:49;7.60;99.90
20858;DHT22;10589;53.636;10.012;2022-12-29T18:15:27;7.70;99.90
20858;DHT22;10589;53.636;10.012;2022-12-29T18:18:11;7.70;99.90
20858;DHT22;10589;53.636;10.012;2022-12-29T18:20:38;7.70;99.90
20858;DHT22;10589;53.636;10.012;2022-12-29T18:23:04;7.80;99.90
20858;DHT22;10589;53.636;10.012;2022-12-29T18:26:21;7.80;99.90
20858;DHT22;10589;53.636;10.012;2022-12-29T18:28:28;7.80;99.90
20858;DHT22;10589;53.636;10.012;2022-12-29T18:30:55;7.80;99.90
20858;DHT22;10589;53.636;10.012;2022-12-29T18:33:22;7.70;99.90
20858;DHT22;10589;53.636;10.012;2022-12-29T18:35:57;7.70;99.90
20858;DHT22;10589;53.636;10.012;2022-12-29T18:38:23;7.70;99.90
20858;DHT22;10589;53.636;10.012;2022-12-29T18:40:49;7.70;99.90
20858;DHT22;10589;53.636;10.012;2022-12-29T18:43:16;7.70;99.90
20858;DHT22;10589;53.636;10.012;2022-12-29T18:45:43;7.70;99.90
20858;DHT22;10589;53.636;10.012;2022-12-29T18:48:15;7.70;99.90
20858;DHT22;10589;53.636;10.012;2022-12-29T18:50:42;7.70;99.90
20858;DHT22;10589;53.636;10.012;2022-12-29T18:53:28;7.70;99.90
20858;DHT22;10589;53.636;10.012;2022-12-29T18:55:53;7.70;99.90
20858;DHT22;10589;53.636;10.012;2022-12-29T18:58:19;7.70;99.90
20858;DHT22;10589;53.636;10.012;2022-12-29T19:00:45;7.70;99.90
20858;DHT22;10589;53.636;10.012;2022-12-29T19:03:16;7.70;99.90
20858;DHT22;10589;53.636;10.012;2022-12-29T19:05:44;7.60;99.90
20858;DHT22;10589;53.636;10.012;2022-12-29T19:08:10;7.60;99.90
20858;DHT22;10589;53.636;10.012;2022-12-29T19:10:37;7.60;99.90
20858;DHT22;10589;53.636;10.012;2022-12-29T19:13:03;7.60;99.90
20858;DHT22;10589;53.636;10.012;2022-12-29T19:15:32;7.60;99.90
20858;DHT22;10589;53.636;10.012;2022-12-29T19:18:00;7.60;99.90
20858;DHT22;10589;53.636;10.012;2022-12-29T19:20:32;7.60;99.90
20858;DHT22;10589;53.636;10.012;2022-12-29T19:23:00;7.60;99.90
20858;DHT22;10589;53.636;10.012;2022-12-29T19:25:26;7.70;99.90
20858;DHT22;10589;53.636;10.012;2022-12-29T19:27:52;7.60;99.90
20858;DHT22;10589;53.636;10.012;2022-12-29T19:30:19;7.70;99.90
20858;DHT22;10589;53.636;10.012;2022-12-29T19:32:48;7.70;99.90
20858;DHT22;10589;53.636;10.012;2022-12-29T19:35:14;7.60;99.90
20858;DHT22;10589;53.636;10.012;2022-12-29T19:37:40;7.60;99.90
20858;DHT22;10589;53.636;10.012;2022-12-29T19:40:12;7.70;99.90
20858;DHT22;10589;53.636;10.012;2022-12-29T19:42:38;7.60;99.90
20858;DHT22;10589;53.636;10.012;2022-12-29T19:45:04;7.60;99.90
20858;DHT22;10589;53.636;10.012;2022-12-29T19:47:30;7.70;99.90
20858;DHT22;10589;53.636;10.012;2022-12-29T19:49:58;7.70;99.90
20858;DHT22;10589;53.636;10.012;2022-12-29T19:52:25;7.70;99.90
20858;DHT22;10589;53.636;10.012;2022-12-29T19:54:51;7.70;99.90
20858;DHT22;10589;53.636;10.012;2022-12-29T19:57:18;7.80;99.90
20858;DHT22;10589;53.636;10.012;2022-12-29T19:59:43;7.80;99.90
20858;DHT22;10589;53.636;10.012;2022-12-29T20:02:24;7.80;99.90
20858;DHT22;10589;53.636;10.012;2022-12-29T20:04:50;7.80;99.90
20858;DHT22;10589;53.636;10.012;2022-12-29T20:07:17;7.80;99.90
20858;DHT22;10589;53.636;10.012;2022-12-29T20:09:43;7.80;99.90
20858;DHT22;10589;53.636;10.012;2022-12-29T20:12:09;7.70;99.90
20858;DHT22;10589;53.636;10.012;2022-12-29T20:14:37;7.60;99.90
20858;DHT22;10589;53.636;10.012;2022-12-29T20:17:03;7.60;99.90
20858;DHT22;10589;53.636;10.012;2022-12-29T20:19:29;7.40;99.90
20858;DHT22;10589;53.636;10.012;2022-12-29T20:21:55;7.40;99.90
20858;DHT22;10589;53.636;10.012;2022-12-29T20:24:21;7.40;99.90
20858;DHT22;10589;53.636;10.012;2022-12-29T20:26:46;7.30;99.90
20858;DHT22;10589;53.636;10.012;2022-12-29T20:29:12;7.30;99.90
20858;DHT22;10589;53.636;10.012;2022-12-29T20:31:39;7.20;99.90
20858;DHT22;10589;53.636;10.012;2022-12-29T20:34:05;7.10;99.90
20858;DHT22;10589;53.636;10.012;2022-12-29T20:36:35;7.10;99.90
20858;DHT22;10589;53.636;10.012;2022-12-29T20:39:06;7.00;99.90
20858;DHT22;10589;53.636;10.012;2022-12-29T20:41:32;7.00;99.90
20858;DHT22;10589;53.636;10.012;2022-12-29T20:43:58;7.00;99.90
20858;DHT22;10589;53.636;10.012;2022-12-29T20:46:24;7.00;99.90
20858;DHT22;10589;53.636;10.012;2022-12-29T20:48:50;6.90;99.90
20858;DHT22;10589;53.636;10.012;2022-12-29T20:51:17;6.90;99.90
20858;DHT22;10589;53.636;10.012;2022-12-29T20:53:44;6.80;99.90
20858;DHT22;10589;53.636;10.012;2022-12-29T20:56:14;6.70;99.90
20858;DHT22;10589;53.636;10.012;2022-12-29T20:58:40;6.70;99.90
20858;DHT22;10589;53.636;10.012;2022-12-29T21:01:07;6.70;99.90
20858;DHT22;10589;53.636;10.012;2022-12-29T21:03:35;6.70;99.90
20858;DHT22;10589;53.636;10.012;2022-12-29T21:06:01;6.70;99.90
20858;DHT22;10589;53.636;10.012;2022-12-29T21:08:28;6.70;99.90
20858;DHT22;10589;53.636;10.012;2022-12-29T21:10:57;6.70;99.90
20858;DHT22;10589;53.636;10.012;2022-12-29T21:13:23;6.60;99.90
20858;DHT22;10589;53.636;10.012;2022-12-29T21:15:55;6.70;99.90
20858;DHT22;10589;53.636;10.012;2022-12-29T21:18:21;6.70;99.90
20858;DHT22;10589;53.636;10.012;2022-12-29T21:21:01;6.70;99.90
20858;DHT22;10589;53.636;10.012;2022-12-29T21:23:27;6.80;99.90
20858;DHT22;10589;53.636;10.012;2022-12-29T21:25:53;6.80;99.90
20858;DHT22;10589;53.636;10.012;2022-12-29T21:28:21;6.80;99.90
20858;DHT22;10589;53.636;10.012;2022-12-29T21:30:47;6.80;99.90
20858;DHT22;10589;53.636;10.012;2022-12-29T21:33:16;6.70;99.90
20858;DHT22;10589;53.636;10.012;2022-12-29T21:35:42;6.70;99.90
20858;DHT22;10589;53.636;10.012;2022-12-29T21:38:08;6.70;99.90
20858;DHT22;10589;53.636;10.012;2022-12-29T21:40:35;6.60;99.90
20858;DHT22;10589;53.636;10.012;2022-12-29T21:43:01;6.60;99.90
20858;DHT22;10589;53.636;10.012;2022-12-29T21:45:27;6.60;99.90
20858;DHT22;10589;53.636;10.012;2022-12-29T21:48:05;6.60;99.90
20858;DHT22;10589;53.636;10.012;2022-12-29T21:50:54;6.50;99.90
20858;DHT22;10589;53.636;10.012;2022-12-29T21:53:41;6.40;99.90
20858;DHT22;10589;53.636;10.012;2022-12-29T21:56:14;6.30;99.90
20858;DHT22;10589;53.636;10.012;2022-12-29T21:58:43;6.20;99.90
20858;DHT22;10589;53.636;10.012;2022-12-29T22:01:30;6.10;99.90
20858;DHT22;10589;53.636;10.012;2022-12-29T22:04:17;6.20;99.90
20858;DHT22;10589;53.636;10.012;2022-12-29T22:07:03;6.10;99.90
20858;DHT22;10589;53.636;10.012;2022-12-29T22:09:48;6.10;99.90
20858;DHT22;10589;53.636;10.012;2022-12-29T22:12:33;6.10;99.90
20858;DHT22;10589;53.636;10.012;2022-12-29T22:15:18;6.00;99.90
20858;DHT22;10589;53.636;10.012;2022-12-29T22:17:48;6.00;99.90
20858;DHT22;10589;53.636;10.012;2022-12-29T22:20:18;6.10;99.90
20858;DHT22;10589;53.636;10.012;2022-12-29T22:22:45;6.10;99.90
20858;DHT22;10589;53.636;10.012;2022-12-29T22:25:11;6.10;99.90
20858;DHT22;10589;53.636;10.012;2022-12-29T22:27:37;6.10;99.90
20858;DHT22;10589;53.636;10.012;2022-12-29T22:30:03;6.00;99.90